Time;durP1;ratioP1;P1;durP2;ratioP2;P2;SDS_P1;SDS_P2;PMS_P1;PMS_P2;Temp;Humidity;BMP_temperature;BMP_pressure;BME280_temperature;BME280_humidity;BME280_pressure;Samples;Min_cycle;Max_cycle;Signal;HPM_P1;HPM_P2
2022/11/22 00:01:32;;;;;;;3.70;1.35;;;8.20;99.90;;;7.94;100.00;98710.56;5112623;29;20054;-84
2022/11/22 00:04:05;;;;;;;3.00;1.17;;;8.20;99.90;;;7.97;100.00;98706.28;5099524;29;20048;-85
2022/11/22 00:06:37;;;;;;;3.60;1.23;;;8.20;99.90;;;7.96;100.00;98701.09;5103431;29;20142;-85
2022/11/22 00:09:09;;;;;;;4.90;1.40;;;8.20;99.90;;;7.98;100.00;98708.03;5092785;29;20060;-85
2022/11/22 00:11:42;;;;;;;3.78;1.27;;;8.10;99.90;;;7.98;100.00;98707.16;5101010;29;20498;-85
2022/11/22 00:14:14;;;;;;;3.58;1.40;;;8.20;99.90;;;8.07;100.00;98720.22;5102083;29;20047;-86
2022/11/22 00:16:47;;;;;;;3.28;1.20;;;8.20;99.90;;;8.09;100.00;98710.75;5101688;29;20171;-85
2022/11/22 00:19:19;;;;;;;2.53;1.00;;;8.20;99.90;;;8.07;100.00;98705.53;5102527;29;20073;-86
2022/11/22 00:21:51;;;;;;;2.13;0.98;;;8.20;99.90;;;8.09;100.00;98706.44;5109658;29;20046;-86
2022/11/22 00:24:23;;;;;;;3.47;1.00;;;8.30;99.90;;;8.14;100.00;98706.47;5101778;29;20047;-86
2022/11/22 00:26:56;;;;;;;3.55;1.17;;;8.30;99.90;;;8.17;100.00;98711.69;5096731;29;20048;-86
2022/11/22 00:29:28;;;;;;;2.00;1.13;;;8.30;99.90;;;8.12;100.00;98716.84;5108245;29;20043;-86
2022/11/22 00:32:00;;;;;;;4.05;1.13;;;8.30;99.90;;;8.15;100.00;98723.81;5109935;29;20055;-85
2022/11/22 00:34:32;;;;;;;3.20;0.90;;;8.30;99.90;;;8.14;100.00;98719.44;5102193;29;20040;-85
2022/11/22 00:37:04;;;;;;;6.03;1.38;;;8.30;99.90;;;8.15;100.00;98718.59;5104751;29;20052;-86
2022/11/22 00:39:36;;;;;;;2.42;1.20;;;8.30;99.90;;;8.20;100.00;98713.44;5094450;29;20129;-85
2022/11/22 00:42:10;;;;;;;4.03;1.05;;;8.30;99.90;;;8.22;100.00;98707.44;5102865;29;20065;-86
2022/11/22 00:44:42;;;;;;;2.17;1.40;;;8.30;99.90;;;8.22;100.00;98697.06;5108293;29;20058;-86
2022/11/22 00:47:14;;;;;;;2.70;1.02;;;8.30;99.90;;;8.22;100.00;98701.38;5092548;29;20052;-85
2022/11/22 00:49:46;;;;;;;1.85;1.00;;;8.30;99.90;;;8.21;100.00;98703.06;5090601;29;20051;-86
2022/11/22 00:52:18;;;;;;;2.22;1.08;;;8.40;99.90;;;8.17;100.00;98701.31;5096748;29;20051;-85
2022/11/22 00:54:51;;;;;;;3.40;1.30;;;8.30;99.90;;;8.14;100.00;98703.88;5102340;29;20040;-86
2022/11/22 00:57:24;;;;;;;1.70;1.08;;;8.30;99.90;;;8.16;100.00;98702.19;5103907;29;20429;-86
2022/11/22 00:59:56;;;;;;;3.08;1.38;;;8.30;99.90;;;8.16;100.00;98704.78;5102207;29;20044;-86
2022/11/22 01:02:28;;;;;;;2.92;1.13;;;8.30;99.90;;;8.10;100.00;98691.72;5099868;29;20051;-85
2022/11/22 01:05:00;;;;;;;3.67;1.30;;;8.30;99.90;;;8.12;100.00;98706.44;5099387;29;20048;-85
2022/11/22 01:07:32;;;;;;;2.47;1.20;;;8.30;99.90;;;8.12;100.00;98713.38;5104743;29;20044;-86
2022/11/22 01:10:06;;;;;;;2.88;1.33;;;8.30;99.90;;;8.12;100.00;98701.25;5099684;29;20418;-86
2022/11/22 01:12:40;;;;;;;3.83;0.95;;;8.30;99.90;;;8.08;100.00;98704.66;5097494;29;20081;-86
2022/11/22 01:15:12;;;;;;;5.88;1.48;;;8.20;99.90;;;8.08;100.00;98708.97;5091041;29;20056;-86
2022/11/22 01:17:44;;;;;;;3.05;1.23;;;8.20;99.90;;;8.07;100.00;98700.34;5092309;29;20410;-86
2022/11/22 01:20:16;;;;;;;2.42;1.00;;;8.20;99.90;;;8.06;100.00;98703.78;5093052;29;20052;-84
2022/11/22 01:22:49;;;;;;;1.85;1.13;;;8.20;99.90;;;8.06;100.00;98714.16;5091743;29;20419;-85
2022/11/22 01:25:21;;;;;;;2.78;1.10;;;8.20;99.90;;;8.09;100.00;98726.31;5092181;29;20058;-83
2022/11/22 01:27:54;;;;;;;1.25;0.93;;;8.20;99.90;;;8.10;100.00;98728.06;5091484;29;20119;-86
2022/11/22 01:30:27;;;;;;;3.28;1.25;;;8.20;99.90;;;8.08;100.00;98732.34;5092334;29;20060;-86
2022/11/22 01:32:59;;;;;;;3.88;1.20;;;8.20;99.90;;;8.06;100.00;98728.88;5092264;29;20154;-86
2022/11/22 01:35:31;;;;;;;2.25;1.25;;;8.30;99.90;;;8.06;100.00;98732.31;5091923;29;20052;-87
2022/11/22 01:38:03;;;;;;;3.72;1.23;;;8.20;99.90;;;8.07;100.00;98733.19;5092394;29;20058;-86
2022/11/22 01:40:35;;;;;;;2.40;1.17;;;8.20;99.90;;;8.06;100.00;98734.91;5092499;29;20511;-86
2022/11/22 01:43:18;;;;;;;2.33;1.33;;;8.20;99.90;;;8.03;100.00;98732.31;5090236;29;20067;-86
2022/11/22 01:45:52;;;;;;;2.25;1.10;;;8.20;99.90;;;8.04;100.00;98738.38;5089653;29;20503;-86
2022/11/22 01:48:47;;;;;;;1.98;1.17;;;8.20;99.90;;;8.05;100.00;98750.47;5091076;29;20067;-86
2022/11/22 01:51:25;;;;;;;;;;;8.20;99.90;;;8.04;100.00;98756.53;5090602;29;20059;-84
2022/11/22 01:54:04;;;;;;;1.63;0.85;;;8.20;99.90;;;8.04;100.00;98746.16;5089868;29;19938;-86
2022/11/22 01:56:39;;;;;;;2.72;1.50;;;8.20;99.90;;;7.99;100.00;98740.03;5089753;29;20531;-85
2022/11/22 01:59:17;;;;;;;3.47;1.23;;;8.10;99.90;;;7.94;100.00;98742.53;5091010;29;20048;-85
2022/11/22 02:01:49;;;;;;;2.70;1.10;;;8.10;99.90;;;7.92;100.00;98753.78;5090782;29;20503;-85
2022/11/22 02:04:24;;;;;;;3.00;1.05;;;8.10;99.90;;;7.89;100.00;98754.63;5090025;29;20066;-85
2022/11/22 02:07:03;;;;;;;3.25;1.02;;;8.10;99.90;;;7.87;100.00;98746.78;5090011;29;20055;-86
2022/11/22 02:09:38;;;;;;;2.75;1.00;;;8.10;99.90;;;7.86;100.00;98752.84;5088865;29;20060;-87
2022/11/22 02:12:12;;;;;;;1.77;0.98;;;8.10;99.90;;;7.85;100.00;98758.88;5089107;29;20059;-85
2022/11/22 02:14:46;;;;;;;1.30;0.85;;;8.00;99.90;;;7.84;100.00;98766.66;5090927;29;20135;-86
2022/11/22 02:17:18;;;;;;;1.55;0.85;;;8.00;99.90;;;7.80;100.00;98781.28;5093102;29;20063;-87
2022/11/22 02:19:51;;;;;;;3.53;1.00;;;8.00;99.90;;;7.77;100.00;98776.06;5092823;29;20060;-85
2022/11/22 02:22:33;;;;;;;2.20;1.13;;;8.00;99.90;;;7.81;100.00;98779.56;5093064;29;20048;-86
2022/11/22 02:25:15;;;;;;;1.92;1.20;;;8.00;99.90;;;7.74;100.00;98770.81;5093369;29;20396;-86
2022/11/22 02:27:49;;;;;;;4.00;1.48;;;7.90;99.90;;;7.74;100.00;98780.31;5092618;29;20052;-85
2022/11/22 02:30:22;;;;;;;1.42;0.90;;;7.90;99.90;;;7.71;100.00;98783.75;5093170;29;20144;-85
2022/11/22 02:32:54;;;;;;;2.28;0.95;;;7.90;99.90;;;7.72;100.00;98788.09;5092744;29;20048;-85
2022/11/22 02:35:29;;;;;;;1.65;1.00;;;7.90;99.90;;;7.71;100.00;98796.72;5093784;29;20047;-85
2022/11/22 02:38:04;;;;;;;1.92;0.82;;;7.90;99.90;;;7.72;100.00;98789.81;5092120;29;20048;-85
2022/11/22 02:40:42;;;;;;;3.38;1.10;;;7.90;99.90;;;7.73;100.00;98781.19;5092994;29;20048;-85
2022/11/22 02:43:19;;;;;;;0.82;0.80;;;7.90;99.90;;;7.73;100.00;98788.97;5094268;29;20051;-86
2022/11/22 02:45:51;;;;;;;2.20;1.00;;;7.90;99.90;;;7.72;100.00;98795.88;5093198;29;20063;-84
2022/11/22 02:48:24;;;;;;;2.25;1.02;;;7.80;99.90;;;7.71;100.00;98786.34;5093532;29;20048;-86
2022/11/22 02:50:56;;;;;;;2.70;1.20;;;7.90;99.90;;;7.70;100.00;98774.25;5093848;29;20048;-86
2022/11/22 02:53:30;;;;;;;3.85;1.00;;;7.90;99.90;;;7.69;100.00;98777.66;5091689;29;20150;-85
2022/11/22 02:56:02;;;;;;;2.88;1.20;;;7.90;99.90;;;7.68;100.00;98781.09;5093710;29;20048;-86
2022/11/22 02:58:36;;;;;;;2.67;0.90;;;7.80;99.90;;;7.65;100.00;98773.28;5092701;29;20454;-86
2022/11/22 03:01:08;;;;;;;1.83;0.90;;;7.80;99.90;;;7.64;100.00;98774.16;5093042;29;20063;-85
2022/11/22 03:03:40;;;;;;;1.42;0.95;;;7.80;99.90;;;7.64;100.00;98774.16;5093710;29;20056;-86
2022/11/22 03:06:12;;;;;;;0.80;0.80;;;7.80;99.90;;;7.62;100.00;98775.81;5092961;29;20054;-86
2022/11/22 03:08:47;;;;;;;1.73;0.85;;;7.80;99.90;;;7.60;100.00;98790.50;5091940;29;20052;-86
2022/11/22 03:11:19;;;;;;;0.75;0.60;;;7.70;99.90;;;7.57;100.00;98798.25;5094033;29;20067;-85
2022/11/22 03:13:53;;;;;;;1.55;0.82;;;7.70;99.90;;;7.56;100.00;98809.44;5093368;29;20055;-85
2022/11/22 03:16:25;;;;;;;0.93;0.60;;;7.70;99.90;;;7.55;100.00;98805.09;5092883;29;20048;-85
2022/11/22 03:18:57;;;;;;;2.03;0.95;;;7.70;99.90;;;7.50;100.00;98804.19;5093994;29;20062;-85
2022/11/22 03:21:29;;;;;;;2.83;1.05;;;7.70;99.90;;;7.52;100.00;98815.44;5095435;29;20438;-86
2022/11/22 03:24:01;;;;;;;2.17;0.80;;;7.60;99.90;;;7.46;100.00;98807.56;5095863;29;20044;-84
2022/11/22 03:26:34;;;;;;;1.45;0.70;;;7.60;99.90;;;7.46;100.00;98810.16;5093880;29;20056;-86
2022/11/22 03:29:07;;;;;;;0.60;0.55;;;7.60;99.90;;;7.43;100.00;98812.69;5095307;29;20059;-85
2022/11/22 03:31:39;;;;;;;0.98;0.70;;;7.60;99.90;;;7.40;100.00;98810.06;5098541;29;20056;-85
2022/11/22 03:34:12;;;;;;;0.73;0.60;;;7.50;99.90;;;7.36;100.00;98819.50;5095514;29;20110;-86
2022/11/22 03:36:44;;;;;;;0.77;0.60;;;7.50;99.90;;;7.32;100.00;98817.72;5094768;29;20483;-86
2022/11/22 03:39:18;;;;;;;1.00;0.65;;;7.40;99.90;;;7.27;100.00;98819.38;5095008;29;20048;-86
2022/11/22 03:41:50;;;;;;;1.65;0.70;;;7.40;99.90;;;7.23;100.00;98833.97;5093237;29;20058;-86
2022/11/22 03:44:23;;;;;;;1.35;0.80;;;7.40;99.90;;;7.17;100.00;98839.09;5094113;29;20119;-85
2022/11/22 03:46:55;;;;;;;0.93;0.60;;;7.30;99.90;;;7.10;100.00;98837.19;5095316;29;20586;-86
2022/11/22 03:49:28;;;;;;;0.50;0.50;;;7.20;99.90;;;7.10;100.00;98847.56;5095458;29;20051;-86
2022/11/22 03:52:00;;;;;;;1.02;0.50;;;7.20;99.90;;;7.12;100.00;98840.72;5093715;29;20515;-85
2022/11/22 03:54:32;;;;;;;1.75;0.70;;;7.30;99.90;;;7.07;100.00;98850.13;5095309;29;20044;-85
2022/11/22 03:57:05;;;;;;;1.17;0.60;;;7.30;99.90;;;7.15;100.00;98861.47;5092928;29;20044;-85
2022/11/22 03:59:38;;;;;;;0.57;0.50;;;7.30;99.90;;;7.11;100.00;98854.53;5095034;29;20076;-86
2022/11/22 04:02:11;;;;;;;1.13;0.60;;;7.30;99.90;;;7.17;100.00;98862.41;5092158;29;20055;-85
2022/11/22 04:04:43;;;;;;;0.82;0.63;;;7.30;99.90;;;7.18;100.00;98856.38;5092611;29;20055;-86
2022/11/22 04:07:15;;;;;;;1.02;0.57;;;7.30;99.90;;;7.19;100.00;98857.25;5091413;29;20048;-85
2022/11/22 04:09:47;;;;;;;2.05;0.70;;;7.30;99.90;;;7.20;100.00;98862.44;5092467;29;20072;-87
2022/11/22 04:12:19;;;;;;;2.38;0.77;;;7.30;99.90;;;7.19;100.00;98857.25;5092472;29;20060;-85
2022/11/22 04:15:06;;;;;;;1.23;0.50;;;7.30;99.90;;;7.19;100.00;98863.28;5094521;29;20052;-87
2022/11/22 04:17:40;;;;;;;1.33;0.70;;;7.30;99.90;;;7.17;100.00;98862.41;5093224;29;20048;-83
2022/11/22 04:23:09;;;;;;;2.03;0.75;;;7.30;99.90;;;7.13;100.00;98868.38;5093625;29;20459;-85
2022/11/22 04:25:44;;;;;;;2.40;1.00;;;7.30;99.90;;;7.08;100.00;98870.88;5093873;29;20052;-87
2022/11/22 04:28:19;;;;;;;2.65;0.90;;;7.30;99.90;;;7.10;100.00;98868.28;5094254;29;20054;-85
2022/11/22 04:33:42;;;;;;;2.95;1.00;;;7.30;99.90;;;7.10;100.00;98864.84;5092615;29;20139;-86
2022/11/22 04:36:14;;;;;;;3.70;0.90;;;7.30;99.90;;;7.05;100.00;98859.59;5091846;29;20056;-86
2022/11/22 04:38:46;;;;;;;3.45;1.27;;;7.30;99.90;;;7.06;100.00;98871.69;5092637;29;20051;-86
2022/11/22 04:41:18;;;;;;;1.10;0.80;;;7.20;99.90;;;7.05;100.00;98870.81;5093857;29;20498;-86
2022/11/22 04:46:41;;;;;;;1.88;1.00;;;7.20;99.90;;;7.02;100.00;98875.06;5092396;29;20446;-86
2022/11/22 04:49:13;;;;;;;2.85;0.88;;;7.20;99.90;;;7.01;100.00;98873.31;5092660;29;20127;-85
2022/11/22 04:54:35;;;;;;;1.83;0.80;;;7.20;99.90;;;6.99;100.00;98864.66;5119049;28;20059;-83
2022/11/22 04:57:07;;;;;;;2.45;1.10;;;7.10;99.90;;;6.98;100.00;98868.09;5106704;29;20051;-85
2022/11/22 04:59:39;;;;;;;2.67;1.20;;;7.10;99.90;;;6.97;100.00;98862.00;5105650;29;20052;-83
2022/11/22 05:02:12;;;;;;;2.40;1.10;;;7.20;99.90;;;6.96;100.00;98859.41;5116949;28;20058;-83
2022/11/22 05:04:44;;;;;;;3.08;1.58;;;7.10;99.90;;;6.94;100.00;98853.34;5085827;29;20048;-83
2022/11/22 05:07:16;;;;;;;3.90;1.23;;;7.10;99.90;;;6.94;100.00;98866.28;5086392;29;20056;-83
2022/11/22 05:09:48;;;;;;;3.85;1.27;;;7.10;99.90;;;6.94;100.00;98866.28;5085432;29;20055;-84
2022/11/22 05:12:20;;;;;;;2.47;1.00;;;7.10;99.90;;;6.94;100.00;98863.69;5085589;29;20054;-83
2022/11/22 05:14:52;;;;;;;4.55;1.63;;;7.10;99.90;;;6.90;100.00;98856.69;5101884;29;20515;-83
2022/11/22 05:17:26;;;;;;;3.33;1.52;;;7.10;99.90;;;6.89;100.00;98868.78;5086019;29;20052;-83
2022/11/22 05:19:58;;;;;;;3.20;1.45;;;7.00;99.90;;;6.88;100.00;98879.13;5086494;29;20421;-83
2022/11/22 05:25:20;;;;;;;1.58;0.93;;;7.00;99.90;;;6.88;100.00;98868.75;5087104;29;20044;-84
2022/11/22 05:27:54;;;;;;;4.03;1.02;;;7.00;99.90;;;6.87;100.00;98879.97;5085906;29;20059;-83
2022/11/22 05:30:26;;;;;;;5.50;1.77;;;7.00;99.90;;;6.85;100.00;98874.75;5086091;29;20048;-84
2022/11/22 05:32:59;;;;;;;5.20;1.52;;;7.00;99.90;;;6.83;100.00;98889.38;5102544;29;20044;-84
2022/11/22 05:35:31;;;;;;;4.22;1.52;;;7.00;99.90;;;6.82;100.00;98897.13;5085750;29;20048;-83
2022/11/22 05:38:04;;;;;;;2.00;1.25;;;6.90;99.90;;;6.74;100.00;98908.22;5101713;29;20063;-84
2022/11/22 05:40:36;;;;;;;3.92;1.33;;;7.00;99.90;;;6.70;100.00;98908.97;5085992;29;20052;-83
2022/11/22 05:43:08;;;;;;;3.47;1.20;;;6.90;99.90;;;6.64;100.00;98928.69;5085957;29;20538;-83
2022/11/22 05:45:40;;;;;;;1.85;1.27;;;6.80;99.90;;;6.57;100.00;98927.69;5089417;29;20085;-84
2022/11/22 05:48:13;;;;;;;2.60;1.10;;;6.80;99.90;;;6.52;100.00;98925.03;5090237;29;20415;-83
2022/11/22 05:50:45;;;;;;;3.78;1.40;;;6.70;99.90;;;6.53;100.00;98941.44;5091553;29;20052;-84
2022/11/22 05:53:17;;;;;;;3.40;1.25;;;6.70;99.90;;;6.53;100.00;98931.06;5101651;29;20060;-84
2022/11/22 05:55:49;;;;;;;4.10;1.50;;;6.70;99.90;;;6.54;100.00;98927.63;5093464;29;20051;-85
2022/11/22 05:58:21;;;;;;;2.38;1.15;;;6.70;99.90;;;6.57;100.00;98935.47;5093237;29;20059;-82
2022/11/22 06:00:53;;;;;;;3.05;1.30;;;6.70;99.90;;;6.56;100.00;98930.25;5113237;29;20061;-84
2022/11/22 06:03:27;;;;;;;3.72;1.25;;;6.70;99.90;;;6.55;100.00;98937.16;5096108;29;20499;-84
2022/11/22 06:05:59;;;;;;;2.38;1.20;;;6.70;99.90;;;6.54;100.00;98927.63;5097331;29;20044;-83
2022/11/22 06:08:32;;;;;;;4.57;1.13;;;6.70;99.90;;;6.52;100.00;98925.03;5112179;29;20543;-83
2022/11/22 06:11:06;;;;;;;2.40;1.10;;;6.70;99.90;;;6.51;100.00;98923.25;5107709;29;20058;-83
2022/11/22 06:13:40;;;;;;;3.92;1.02;;;6.70;99.90;;;6.51;100.00;98935.31;5111133;29;20079;-85
2022/11/22 06:16:13;;;;;;;2.42;1.00;;;6.70;99.90;;;6.52;100.00;98944.88;5096562;29;20036;-84
2022/11/22 06:18:47;;;;;;;6.38;1.08;;;6.70;99.90;;;6.51;100.00;98943.09;5114587;29;20054;-84
2022/11/22 06:21:22;;;;;;;2.67;1.25;;;6.70;99.90;;;6.51;100.00;98948.25;5101749;29;20032;-85
2022/11/22 06:23:55;;;;;;;5.57;1.85;;;6.70;99.90;;;6.50;100.00;98944.81;5117545;29;20055;-83
2022/11/22 06:26:28;;;;;;;5.28;1.45;;;6.70;99.90;;;6.51;100.00;98948.25;5091832;29;20052;-80
2022/11/22 06:29:00;;;;;;;4.63;1.08;;;6.70;99.90;;;6.53;100.00;98949.19;5108047;29;20048;-80
2022/11/22 06:31:32;;;;;;;4.78;1.10;;;6.70;99.90;;;6.53;100.00;98951.78;5093704;29;20088;-80
2022/11/22 06:34:05;;;;;;;3.35;1.15;;;6.70;99.90;;;6.53;100.00;98949.19;5092590;29;20063;-80
2022/11/22 06:36:38;;;;;;;3.53;1.10;;;6.70;99.90;;;6.54;100.00;98953.53;5092533;29;20052;-80
2022/11/22 06:39:11;;;;;;;3.13;1.05;;;6.70;99.90;;;6.51;100.00;98953.44;5089347;29;20056;-80
2022/11/22 06:41:43;;;;;;;5.10;1.10;;;6.70;99.90;;;6.51;100.00;98961.22;5089419;29;20052;-79
2022/11/22 06:44:15;;;;;;;3.20;1.23;;;6.70;99.90;;;6.55;100.00;98957.00;5088465;29;20048;-79
2022/11/22 06:46:47;;;;;;;4.45;0.88;;;6.70;99.90;;;6.55;100.00;98963.03;5087049;29;20048;-80
2022/11/22 06:49:20;;;;;;;6.38;1.40;;;6.70;99.90;;;6.55;100.00;98972.50;5086908;29;20056;-80
2022/11/22 06:51:52;;;;;;;4.32;1.40;;;6.80;99.90;;;6.55;100.00;98970.81;5086238;29;20063;-80
2022/11/22 06:54:24;;;;;;;5.88;1.30;;;6.70;99.90;;;6.54;100.00;98979.41;5087973;29;20051;-79
2022/11/22 06:56:56;;;;;;;5.53;1.27;;;6.70;99.90;;;6.52;100.00;98978.50;5087855;29;20048;-81
2022/11/22 06:59:28;;;;;;;6.32;1.50;;;6.80;99.90;;;6.53;100.00;98980.25;5087341;29;20052;-81
2022/11/22 07:02:00;;;;;;;3.97;1.30;;;6.70;99.90;;;6.56;100.00;98980.31;5101342;29;20059;-81
2022/11/22 07:04:33;;;;;;;4.72;1.52;;;6.80;99.90;;;6.58;100.00;98976.03;5087754;29;20407;-80
2022/11/22 07:07:05;;;;;;;3.45;1.17;;;6.80;99.90;;;6.63;100.00;98958.00;5103653;29;20048;-81
2022/11/22 07:09:38;;;;;;;6.75;1.80;;;6.80;99.90;;;6.62;100.00;98977.84;5078401;29;20060;-80
2022/11/22 07:12:10;;;;;;;7.88;1.40;;;6.80;99.90;;;6.66;100.00;98974.50;5088659;29;20153;-80
2022/11/22 07:14:42;;;;;;;4.63;1.50;;;6.90;99.90;;;6.67;100.00;98971.06;5103344;29;20511;-80
2022/11/22 07:17:14;;;;;;;6.72;1.65;;;6.90;99.90;;;6.67;100.00;98971.06;5086609;29;20048;-80
2022/11/22 07:19:47;;;;;;;8.23;1.70;;;6.90;99.90;;;6.67;100.00;98985.72;5102506;29;20060;-79
2022/11/22 07:22:19;;;;;;;6.30;1.65;;;6.90;99.90;;;6.70;100.00;98990.97;5086566;29;20056;-81
2022/11/22 07:24:51;;;;;;;6.78;1.80;;;6.90;99.90;;;6.74;100.00;98993.66;5088365;29;20052;-80
2022/11/22 07:27:23;;;;;;;7.15;1.48;;;7.00;99.90;;;6.84;100.00;99004.19;5088469;29;20522;-80
2022/11/22 07:29:55;;;;;;;4.40;1.40;;;7.00;99.90;;;6.83;100.00;98998.16;5086889;29;20055;-81
2022/11/22 07:32:27;;;;;;;4.30;1.13;;;7.00;99.90;;;6.90;100.00;98993.97;5086934;29;20056;-80
2022/11/22 07:35:01;;;;;;;4.88;1.13;;;7.10;99.90;;;6.94;100.00;98990.59;5102883;29;20048;-81
2022/11/22 07:37:33;;;;;;;5.85;1.33;;;7.10;99.90;;;6.96;100.00;98983.72;5086933;29;20059;-81
2022/11/22 07:40:07;;;;;;;5.03;1.30;;;7.20;99.90;;;6.99;100.00;98979.50;5102716;29;20071;-79
2022/11/22 07:42:39;;;;;;;4.25;1.20;;;7.20;99.90;;;7.02;100.00;98971.78;5102009;29;20514;-81
2022/11/22 07:45:11;;;;;;;2.75;1.20;;;7.20;99.90;;;7.06;100.00;98975.31;5086610;29;20086;-81
2022/11/22 07:47:43;;;;;;;3.85;1.17;;;7.30;99.90;;;7.10;100.00;98977.09;5086547;29;20048;-80
2022/11/22 07:50:17;;;;;;;5.97;1.65;;;7.30;99.90;;;7.16;100.00;98979.81;5087111;29;20063;-81
2022/11/22 07:52:55;;;;;;;4.03;1.33;;;7.30;99.90;;;7.18;100.00;98985.06;5086157;29;20055;-81
2022/11/22 07:55:30;;;;;;;3.25;1.00;;;7.40;99.90;;;7.21;100.00;98985.97;5085504;29;20052;-80
2022/11/22 07:58:02;;;;;;;5.50;1.10;;;7.40;99.90;;;7.25;100.00;98992.97;5086247;29;20063;-80
2022/11/22 08:00:34;;;;;;;2.85;1.17;;;7.40;99.90;;;7.26;100.00;98999.03;5086430;29;20096;-80
2022/11/22 08:03:07;;;;;;;4.10;1.13;;;7.40;99.90;;;7.28;100.00;99003.38;5087503;29;20048;-80
2022/11/22 08:05:40;;;;;;;2.28;0.82;;;7.40;99.90;;;7.31;100.00;98998.28;5086848;29;20055;-80
2022/11/22 08:08:12;;;;;;;3.55;1.10;;;7.50;99.90;;;7.32;100.00;99001.75;5102077;29;20422;-81
2022/11/22 08:10:45;;;;;;;7.25;1.48;;;7.50;99.90;;;7.37;100.00;99013.06;5102527;29;20052;-80
2022/11/22 08:13:17;;;;;;;5.57;1.30;;;7.50;99.90;;;7.39;100.00;99013.09;5085336;29;20108;-80
2022/11/22 08:15:50;;;;;;;5.78;1.30;;;7.50;99.90;;;7.36;100.00;99011.31;5085856;29;20059;-80
2022/11/22 08:18:22;;;;;;;3.72;1.00;;;7.60;99.90;;;7.39;100.00;99015.69;5086815;29;20063;-80
2022/11/22 08:21:05;;;;;;;3.13;1.10;;;7.60;99.90;;;7.44;100.00;99025.31;5089555;29;20051;-81
2022/11/22 08:23:37;;;;;;;3.97;1.13;;;7.60;99.90;;;7.58;100.00;99018.66;5087986;29;20086;-83
2022/11/22 08:26:13;;;;;;;3.53;1.10;;;7.80;99.90;;;7.72;100.00;99018.91;5091078;29;20056;-84
2022/11/22 08:28:46;;;;;;;3.75;1.33;;;7.90;99.90;;;7.84;100.00;99026.03;5091847;29;20059;-83
2022/11/22 08:31:19;;;;;;;4.90;1.38;;;8.00;99.90;;;7.96;100.00;99021.06;5087568;29;20064;-84
2022/11/22 08:33:53;;;;;;;4.90;0.95;;;8.10;99.90;;;8.10;100.00;99029.06;5085845;29;20059;-84
2022/11/22 08:36:27;;;;;;;7.28;1.38;;;8.20;99.90;;;8.27;100.00;99026.72;5086133;29;20388;-83
2022/11/22 08:38:59;;;;;;;3.35;1.08;;;8.40;99.90;;;8.43;100.00;99036.56;5085892;29;20052;-82
2022/11/22 08:41:31;;;;;;;6.30;1.77;;;8.50;99.90;;;8.48;100.00;99039.22;5085707;29;20048;-81
2022/11/22 08:44:03;;;;;;;3.42;1.20;;;8.60;99.90;;;8.45;100.00;99044.34;5085830;29;20052;-81
2022/11/22 08:46:35;;;;;;;4.60;1.50;;;8.60;99.90;;;8.39;100.00;99055.50;5086844;29;20040;-82
2022/11/22 08:49:10;;;;;;;2.65;1.23;;;8.50;99.90;;;8.37;100.00;99049.44;5085913;29;20079;-82
2022/11/22 08:51:43;;;;;;;7.32;1.40;;;8.50;99.90;;;8.30;100.00;99038.03;5087008;29;20048;-82
2022/11/22 08:54:15;;;;;;;5.10;1.50;;;8.50;99.90;;;8.23;100.00;99028.41;5085839;29;20055;-83
2022/11/22 08:56:47;;;;;;;3.95;1.00;;;8.40;99.90;;;8.21;100.00;99030.09;5085080;29;20056;-82
2022/11/22 08:59:19;;;;;;;5.95;1.00;;;8.40;99.90;;;8.21;100.00;99030.09;5100869;29;20056;-82
2022/11/22 09:01:51;;;;;;;5.47;1.02;;;8.40;99.90;;;8.26;100.00;99032.78;5087373;29;20426;-82
2022/11/22 09:04:23;;;;;;;3.55;1.00;;;8.40;99.90;;;8.26;100.00;99038.84;5085678;29;20043;-81
2022/11/22 09:06:59;;;;;;;5.50;1.25;;;8.40;99.90;;;8.28;100.00;99044.94;5100947;29;20499;-81
2022/11/22 09:09:32;;;;;;;3.03;1.02;;;8.40;99.90;;;8.35;100.00;99052.00;5100735;29;20044;-83
2022/11/22 09:12:05;;;;;;;2.28;0.88;;;8.50;99.90;;;8.46;100.00;99043.50;5084340;29;20514;-81
2022/11/22 09:14:37;;;;;;;3.90;1.10;;;8.50;99.90;;;8.54;100.00;99047.97;5086903;29;20058;-81
2022/11/22 09:17:09;;;;;;;9.23;1.60;;;8.60;99.90;;;8.58;100.00;99048.88;5062545;28;20182;-81
2022/11/22 09:19:41;;;;;;;2.70;1.20;;;8.60;99.90;;;8.71;100.00;99053.41;5083943;29;20533;-82
2022/11/22 09:22:14;;;;;;;5.45;1.80;;;8.70;99.90;;;8.86;100.00;99058.81;5086023;29;20052;-81
2022/11/22 09:24:46;;;;;;;4.82;1.30;;;8.80;99.90;;;9.09;100.00;99050.47;5087643;29;20779;-82
2022/11/22 09:27:19;;;;;;;5.05;2.13;;;9.00;99.90;;;9.25;100.00;99055.00;5120131;28;20052;-82
2022/11/22 09:29:51;;;;;;;4.18;1.33;;;9.20;99.90;;;9.48;100.00;99042.28;5089727;29;20076;-82
2022/11/22 09:32:23;;;;;;;3.95;1.63;;;9.40;99.90;;;9.63;100.00;99046.75;5092756;29;20418;-81
2022/11/22 09:34:55;;;;;;;4.97;1.90;;;9.50;99.90;;;9.77;99.24;99045.19;5085065;29;20048;-82
2022/11/22 09:37:28;;;;;;;6.25;2.10;;;9.70;99.90;;;9.82;96.82;99051.31;5101047;29;20396;-81
2022/11/22 09:40:00;;;;;;;6.45;1.30;;;9.70;99.90;;;9.91;96.82;99059.22;5100940;29;20048;-81
2022/11/22 09:43:09;;;;;;;4.28;1.45;;;9.80;99.90;;;9.94;95.92;99054.03;5114314;28;20060;-81
2022/11/22 09:46:11;;;;;;;6.88;1.17;;;9.90;99.90;;;9.75;94.28;99067.72;5100487;29;20503;-81
2022/11/22 09:49:10;;;;;;;6.70;1.27;;;9.80;99.90;;;9.65;95.00;99071.97;5099903;29;20503;-81
2022/11/22 09:51:49;;;;;;;5.00;1.95;;;9.70;99.90;;;9.49;95.09;99068.28;5100876;29;20056;-81
2022/11/22 09:54:27;;;;;;;4.40;1.75;;;9.60;99.90;;;9.40;95.46;99065.59;5101502;29;20455;-81
2022/11/22 09:57:04;;;;;;;6.45;1.48;;;9.50;99.90;;;9.37;95.62;99065.53;5100979;29;20051;-81
2022/11/22 09:59:40;;;;;;;7.22;1.95;;;9.50;99.90;;;9.31;96.25;99065.47;5100210;29;20059;-81
2022/11/22 10:02:20;;;;;;;5.32;1.33;;;9.40;99.90;;;9.29;96.68;99080.19;5086437;29;20056;-81
2022/11/22 10:04:56;;;;;;;3.85;1.23;;;9.40;99.90;;;9.34;96.93;99056.84;5085264;29;20059;-81
2022/11/22 10:07:34;;;;;;;4.55;0.98;;;9.40;99.90;;;9.40;97.47;99055.19;5086321;29;20061;-82
2022/11/22 10:10:13;;;;;;;5.85;1.88;;;9.40;99.90;;;9.45;97.46;99058.72;5084968;29;20052;-81
2022/11/22 10:12:51;;;;;;;5.45;1.30;;;9.40;99.90;;;9.42;96.76;99043.06;5084926;29;20056;-82
2022/11/22 10:15:37;;;;;;;5.72;1.05;;;9.50;99.90;;;9.46;96.96;99042.25;5100906;29;20059;-81
2022/11/22 10:18:18;;;;;;;2.67;1.15;;;9.50;99.90;;;9.46;97.20;99039.66;5085763;29;20426;-82
2022/11/22 10:20:50;;;;;;;7.15;1.60;;;9.50;99.90;;;9.51;97.93;99043.16;5086188;29;20059;-82
2022/11/22 10:23:24;;;;;;;6.45;1.13;;;9.50;99.90;;;9.60;97.00;99021.59;5100892;29;20507;-82
2022/11/22 10:26:00;;;;;;;7.22;2.83;;;9.60;99.90;;;9.60;96.43;99021.59;5086437;29;20040;-82
2022/11/22 10:28:36;;;;;;;6.97;2.00;;;9.60;99.90;;;9.51;97.01;99011.09;5085167;29;20059;-82
2022/11/22 10:31:15;;;;;;;5.03;1.70;;;9.50;99.90;;;9.56;96.70;99014.63;5086292;29;20048;-82
2022/11/22 10:34:00;;;;;;;1.90;1.00;;;9.60;99.90;;;9.68;96.93;99008.66;5086278;29;20048;-82
2022/11/22 10:36:42;;;;;;;3.10;0.90;;;9.70;99.90;;;9.85;96.73;99007.13;5102483;29;20060;-81
2022/11/22 10:39:37;;;;;;;4.53;1.05;;;9.80;99.90;;;10.02;96.46;98992.50;5103990;29;20074;-82
2022/11/22 10:42:27;;;;;;;2.15;1.08;;;9.90;99.90;;;10.07;94.90;98993.41;5089739;29;20048;-83
2022/11/22 10:45:07;;;;;;;7.43;1.00;;;10.10;99.90;;;10.21;93.42;99005.66;5100463;29;20055;-83
2022/11/22 10:48:01;;;;;;;4.47;1.08;;;10.10;99.90;;;10.12;93.66;99010.81;5086914;29;20052;-82
2022/11/22 10:50:49;;;;;;;8.18;2.22;;;10.10;99.90;;;10.13;94.33;99002.13;5104487;29;20487;-83
2022/11/22 10:53:36;;;;;;;9.60;1.85;;;10.10;99.90;;;10.37;100.00;99007.56;5188578;23;20042;-54
2022/11/22 10:56:17;;;;;;;6.35;2.00;;;10.40;99.90;;;10.70;100.00;99006.06;5139288;28;20047;-51
2022/11/22 10:59:15;;;;;;;5.20;1.63;;;10.70;99.90;;;10.86;95.82;99011.34;5125823;28;20126;-53
2022/11/22 11:01:55;;;;;;;4.70;1.20;;;10.80;99.90;;;10.77;94.23;98989.59;5125891;28;20640;-51
2022/11/22 11:04:31;;;;;;;3.03;1.02;;;10.80;99.90;;;10.76;95.29;98990.44;5125941;28;20047;-53
2022/11/22 11:07:06;;;;;;;3.25;1.20;;;10.80;99.90;;;10.68;93.63;98997.34;5125751;29;20054;-51
2022/11/22 11:09:42;;;;;;;2.03;0.90;;;10.70;99.90;;;10.56;93.42;98992.91;5125822;28;20053;-53
2022/11/22 11:12:20;;;;;;;3.10;0.80;;;10.60;99.90;;;10.41;92.99;98988.47;5125521;28;20059;-53